Time;durP1;ratioP1;P1;durP2;ratioP2;P2;SDS_P1;SDS_P2;PMS_P1;PMS_P2;Temp;Humidity;BMP_temperature;BMP_pressure;BME280_temperature;BME280_humidity;BME280_pressure;Samples;Min_cycle;Max_cycle;Signal;HPM_P1;HPM_P2
2024/01/17 00:00:39;;;;;;;;;;;;;;;-2.93;62.46;96786.53;5068060;28;20063;-59
2024/01/17 00:03:28;;;;;;;;;;;;;;;-2.94;62.82;96780.44;5062421;28;19931;-59
2024/01/17 00:06:16;;;;;;;;;;;;;;;-2.88;62.45;96773.31;5068384;28;20386;-58
2024/01/17 00:09:05;;;;;;;;;;;;;;;-2.84;62.27;96779.72;5066294;28;19931;-58
2024/01/17 00:11:54;;;;;;;;;;;;;;;-2.88;62.94;96783.13;5066865;28;20018;-59
2024/01/17 00:14:42;;;;;;;;;;;;;;;-3.10;63.65;96775.25;5067894;28;19924;-59
2024/01/17 00:17:30;;;;;;;;;;;;;;;-2.80;62.31;96772.06;5066389;28;19928;-59
2024/01/17 00:20:18;;;;;;;;;;;;;;;-2.83;62.59;96770.69;5064911;28;19924;-59
2024/01/17 00:23:06;;;;;;;;;;;;;;;-2.74;61.93;96769.19;5071000;28;20009;-63
2024/01/17 00:25:55;;;;;;;;;;;;;;;-2.84;62.63;96766.44;5070110;28;20760;-59
2024/01/17 00:28:45;;;;;;;;;;;;;;;-2.74;62.75;96755.09;5069301;28;20060;-59
2024/01/17 00:31:33;;;;;;;;;;;;;;;-2.63;62.25;96741.59;5070721;28;19950;-60
2024/01/17 00:34:21;;;;;;;;;;;;;;;-2.77;62.38;96737.81;5062872;28;19932;-60
2024/01/17 00:37:09;;;;;;;;;;;;;;;-2.78;62.25;96730.88;5069986;28;19924;-59
2024/01/17 00:39:58;;;;;;;;;;;;;;;-2.96;62.51;96731.25;5070192;28;19924;-58
2024/01/17 00:42:49;;;;;;;;;;;;;;;-2.80;61.76;96718.91;5070132;28;19933;-58
2024/01/17 00:45:37;;;;;;;;;;;;;;;-2.90;61.90;96715.09;5065290;28;19982;-59
2024/01/17 00:48:26;;;;;;;;;;;;;;;-2.91;62.28;96710.03;5070161;28;20012;-58
2024/01/17 00:51:21;;;;;;;;;;;;;;;-3.17;62.52;96712.50;5067546;28;19937;-59
2024/01/17 00:54:11;;;;;;;;;;;;;;;-3.12;62.67;96714.41;5070123;28;21744;-59
2024/01/17 00:56:59;;;;;;;;;;;;;;;-3.20;62.49;96712.19;5068133;28;19928;-59
2024/01/17 00:59:49;;;;;;;;;;;;;;;-3.17;62.76;96707.19;5068761;28;19932;-61
2024/01/17 01:02:37;;;;;;;;;;;;;;;-3.28;63.12;96702.84;5062588;28;19924;-59
2024/01/17 01:05:25;;;;;;;;;;;;;;;-3.28;63.21;96705.50;5070603;28;20289;-59
2024/01/17 01:08:13;;;;;;;;;;;;;;;-3.34;62.85;96700.41;5066591;28;20385;-59
2024/01/17 01:11:02;;;;;;;;;;;;;;;-3.34;63.38;96695.09;5069253;28;19963;-59
2024/01/17 01:13:50;;;;;;;;;;;;;;;-3.19;62.95;96693.38;5065318;28;19924;-60
2024/01/17 01:16:40;;;;;;;;;;;;;;;-3.24;63.48;96690.66;5065793;28;20286;-59
2024/01/17 01:19:29;;;;;;;;;;;;;;;-3.05;62.57;96687.59;5063330;28;19932;-60
2024/01/17 01:22:17;;;;;;;;;;;;;;;-3.20;63.02;96685.63;5071551;28;20015;-59
2024/01/17 01:25:05;;;;;;;;;;;;;;;-2.93;62.39;96685.56;5069363;28;19924;-59
2024/01/17 01:27:53;;;;;;;;;;;;;;;-3.10;62.11;96680.41;5065672;28;19931;-60
2024/01/17 01:30:41;;;;;;;;;;;;;;;-2.95;62.06;96696.47;5061688;28;20004;-60
2024/01/17 01:33:31;;;;;;;;;;;;;;;-2.84;61.51;96694.69;5068622;28;20495;-57
2024/01/17 01:36:19;;;;;;;;;;;;;;;-2.63;61.59;96685.78;5063954;28;20512;-59
2024/01/17 01:39:07;;;;;;;;;;;;;;;-2.63;61.31;96688.44;5064173;28;19924;-59
2024/01/17 01:41:55;;;;;;;;;;;;;;;-3.04;62.30;96702.50;5065981;28;20015;-59
2024/01/17 01:44:45;;;;;;;;;;;;;;;-2.90;62.23;96695.69;5069944;28;19924;-59
2024/01/17 01:47:33;;;;;;;;;;;;;;;-2.95;62.11;96698.31;5068813;28;19925;-59
2024/01/17 01:50:22;;;;;;;;;;;;;;;-3.13;62.65;96690.75;5068199;28;19929;-60
2024/01/17 01:53:10;;;;;;;;;;;;;;;-2.93;62.89;96685.56;5072411;28;19924;-59
2024/01/17 01:55:58;;;;;;;;;;;;;;;-3.14;63.17;96667.88;5068701;28;19931;-59
2024/01/17 01:58:46;;;;;;;;;;;;;;;-3.04;63.61;96678.56;5062361;28;19932;-59
2024/01/17 02:01:35;;;;;;;;;;;;;;;-2.79;62.95;96670.00;5068645;28;19925;-58
2024/01/17 02:04:23;;;;;;;;;;;;;;;-2.65;62.44;96677.25;5065047;28;20409;-58
2024/01/17 02:07:12;;;;;;;;;;;;;;;-2.71;62.52;96667.66;5062110;28;19929;-59
2024/01/17 02:10:02;;;;;;;;;;;;;;;-2.58;62.29;96654.97;5065293;28;19932;-58
2024/01/17 02:12:50;;;;;;;;;;;;;;;-2.38;61.98;96653.22;5071494;28;19928;-58
2024/01/17 02:15:38;;;;;;;;;;;;;;;-2.46;61.61;96658.22;5068087;28;20405;-59
2024/01/17 02:18:27;;;;;;;;;;;;;;;-2.28;61.17;96649.00;5068425;28;19925;-60
2024/01/17 02:21:15;;;;;;;;;;;;;;;-2.38;60.86;96633.78;5070956;28;19975;-59
2024/01/17 02:24:16;;;;;;;;;;;;;;;-2.45;61.29;96639.34;5066878;28;19932;-58
2024/01/17 02:27:04;;;;;;;;;;;;;;;-2.59;62.01;96632.91;5070876;28;19971;-59
2024/01/17 02:29:53;;;;;;;;;;;;;;;-2.30;61.06;96627.16;5065271;28;19936;-58
2024/01/17 02:32:41;;;;;;;;;;;;;;;-2.42;61.23;96616.75;5064103;28;20028;-58
2024/01/17 02:35:30;;;;;;;;;;;;;;;-2.53;61.36;96610.59;5066307;28;19935;-58
2024/01/17 02:38:18;;;;;;;;;;;;;;;-2.60;62.14;96614.56;5068541;28;20354;-58
2024/01/17 02:41:09;;;;;;;;;;;;;;;-2.58;62.02;96602.59;5072109;28;19928;-58
2024/01/17 02:43:57;;;;;;;;;;;;;;;-2.77;62.25;96604.06;5070482;28;19932;-59
2024/01/17 02:46:46;;;;;;;;;;;;;;;-2.80;62.30;96594.78;5069584;28;19924;-60
2024/01/17 02:49:34;;;;;;;;;;;;;;;-2.85;62.09;96600.06;5061310;28;20366;-58
2024/01/17 02:52:22;;;;;;;;;;;;;;;-2.79;62.87;96601.69;5065136;28;20486;-58
2024/01/17 02:55:11;;;;;;;;;;;;;;;-2.79;62.34;96585.72;5065034;28;19928;-59
2024/01/17 02:58:01;;;;;;;;;;;;;;;-2.85;62.62;96592.09;5050234;28;19925;-58
2024/01/17 03:00:49;;;;;;;;;;;;;;;-2.67;62.12;96581.00;5068401;28;20554;-60
2024/01/17 03:03:37;;;;;;;;;;;;;;;-2.57;61.51;96569.63;5068221;28;19939;-60
2024/01/17 03:06:25;;;;;;;;;;;;;;;-2.55;62.02;96569.38;5062169;28;19925;-60
2024/01/17 03:09:14;;;;;;;;;;;;;;;-2.58;62.32;96565.34;5067815;28;19929;-59
2024/01/17 03:12:03;;;;;;;;;;;;;;;-2.51;61.65;96560.59;5063932;28;20301;-59
2024/01/17 03:14:55;;;;;;;;;;;;;;;-2.42;62.17;96552.91;5064199;28;19930;-60
2024/01/17 03:17:43;;;;;;;;;;;;;;;-2.63;61.99;96541.41;5066173;28;19946;-59
2024/01/17 03:20:32;;;;;;;;;;;;;;;-2.55;62.04;96534.81;5062439;28;19947;-58
2024/01/17 03:23:21;;;;;;;;;;;;;;;-2.58;61.75;96527.34;5062118;28;19932;-58
2024/01/17 03:26:10;;;;;;;;;;;;;;;-2.63;62.04;96526.25;5062290;28;19924;-59
2024/01/17 03:28:58;;;;;;;;;;;;;;;-2.62;62.05;96519.06;5067612;28;19931;-58
2024/01/17 03:31:47;;;;;;;;;;;;;;;-2.75;62.24;96516.91;5064877;28;20434;-59
2024/01/17 03:34:35;;;;;;;;;;;;;;;-2.53;62.25;96506.88;5061779;28;19931;-59
2024/01/17 03:37:23;;;;;;;;;;;;;;;-2.83;62.02;96501.47;5058168;28;20405;-58
2024/01/17 03:40:12;;;;;;;;;;;;;;;-2.86;63.04;96497.47;5064298;28;19959;-58
2024/01/17 03:43:00;;;;;;;;;;;;;;;-3.00;63.57;96488.38;5068163;28;19924;-59
2024/01/17 03:45:49;;;;;;;;;;;;;;;-2.77;62.34;96485.28;5061079;28;20114;-59
2024/01/17 03:48:38;;;;;;;;;;;;;;;-2.64;62.51;96476.81;5063344;28;20073;-59
2024/01/17 03:51:30;;;;;;;;;;;;;;;-2.55;62.82;96473.66;5064522;28;19936;-59
2024/01/17 03:54:18;;;;;;;;;;;;;;;-2.68;62.62;96473.06;5060053;28;19928;-62
2024/01/17 03:57:08;;;;;;;;;;;;;;;-2.65;62.66;96464.59;5063570;28;19924;-58
2024/01/17 03:59:56;;;;;;;;;;;;;;;-2.57;62.33;96454.47;5068375;28;20066;-58
2024/01/17 04:02:44;;;;;;;;;;;;;;;-2.40;61.44;96447.06;5068098;28;20305;-58
2024/01/17 04:05:33;;;;;;;;;;;;;;;-2.46;62.02;96437.47;5066007;28;20397;-58
2024/01/17 04:08:22;;;;;;;;;;;;;;;-2.45;62.03;96421.28;5067228;28;19939;-59
2024/01/17 04:11:09;;;;;;;;;;;;;;;-2.37;61.81;96431.38;5071856;28;19928;-61
2024/01/17 04:13:58;;;;;;;;;;;;;;;-2.58;61.68;96421.00;5068186;28;19925;-58
2024/01/17 04:16:46;;;;;;;;;;;;;;;-2.52;61.63;96407.44;5069773;28;19932;-60
2024/01/17 04:19:34;;;;;;;;;;;;;;;-2.64;62.25;96407.69;5068267;28;20392;-59
2024/01/17 04:22:23;;;;;;;;;;;;;;;-2.67;62.44;96394.91;5071389;28;20011;-59
2024/01/17 04:25:11;;;;;;;;;;;;;;;-2.71;62.51;96398.38;5079056;28;19924;-60
2024/01/17 04:27:59;;;;;;;;;;;;;;;-2.80;63.18;96391.97;5067923;28;19925;-60
2024/01/17 04:30:47;;;;;;;;;;;;;;;-2.88;63.18;96395.94;5066124;28;19932;-59
2024/01/17 04:33:35;;;;;;;;;;;;;;;-2.80;62.75;96392.78;5070907;28;19925;-58
2024/01/17 04:36:26;;;;;;;;;;;;;;;-2.80;63.03;96397.28;5070326;28;20374;-58
2024/01/17 04:39:16;;;;;;;;;;;;;;;-2.90;63.01;96387.44;5068382;28;20297;-60
2024/01/17 04:42:04;;;;;;;;;;;;;;;-2.88;63.54;96380.00;5072063;28;20408;-59
2024/01/17 04:44:55;;;;;;;;;;;;;;;-2.86;63.05;96377.09;5067692;28;19931;-59
2024/01/17 04:47:44;;;;;;;;;;;;;;;-2.82;63.53;96370.16;5068944;28;20267;-60
2024/01/17 04:50:32;;;;;;;;;;;;;;;-2.84;63.51;96364.31;5070383;28;19928;-59
2024/01/17 04:53:20;;;;;;;;;;;;;;;-2.90;64.29;96364.31;5070460;28;20401;-60
2024/01/17 04:56:11;;;;;;;;;;;;;;;-2.56;63.67;96358.50;5068098;28;20301;-59
2024/01/17 04:59:00;;;;;;;;;;;;;;;-2.67;63.40;96354.25;5066038;28;19932;-62
2024/01/17 05:01:48;;;;;;;;;;;;;;;-2.66;63.34;96351.34;5070558;28;19924;-59
2024/01/17 05:04:36;;;;;;;;;;;;;;;-2.68;63.90;96347.34;5069934;28;19924;-59
2024/01/17 05:07:24;;;;;;;;;;;;;;;-2.62;63.56;96346.28;5071083;28;20340;-58
2024/01/17 05:10:13;;;;;;;;;;;;;;;-2.47;63.52;96340.16;5070819;28;19925;-62
2024/01/17 05:13:03;;;;;;;;;;;;;;;-2.47;62.91;96342.81;5070161;28;21532;-59
2024/01/17 05:15:51;;;;;;;;;;;;;;;-2.48;63.12;96343.88;5069590;28;19943;-58
2024/01/17 05:18:39;;;;;;;;;;;;;;;-2.49;63.02;96336.97;5070514;28;20384;-60
2024/01/17 05:21:29;;;;;;;;;;;;;;;-2.59;63.65;96334.31;5054845;28;20402;-59
2024/01/17 05:24:17;;;;;;;;;;;;;;;-2.49;63.16;96323.69;5068381;28;19966;-58
2024/01/17 05:27:05;;;;;;;;;;;;;;;-2.52;63.72;96313.56;5068499;28;19928;-59
2024/01/17 05:29:54;;;;;;;;;;;;;;;-2.28;63.35;96304.00;5065621;28;19932;-62
2024/01/17 05:32:43;;;;;;;;;;;;;;;-2.05;63.04;96293.84;5067620;28;19932;-58
2024/01/17 05:35:31;;;;;;;;;;;;;;;-2.00;62.22;96297.28;5075701;28;19990;-59
2024/01/17 05:38:20;;;;;;;;;;;;;;;-2.21;62.83;96288.53;5066662;28;20373;-60
2024/01/17 05:41:09;;;;;;;;;;;;;;;-2.13;63.01;96285.34;5067809;28;19928;-59
2024/01/17 05:43:57;;;;;;;;;;;;;;;-2.07;62.73;96278.16;5068740;28;20374;-58
2024/01/17 05:46:47;;;;;;;;;;;;;;;-1.90;62.93;96269.84;5070842;28;19931;-59
2024/01/17 05:49:35;;;;;;;;;;;;;;;-1.82;62.49;96263.94;5076042;28;19924;-60
2024/01/17 05:52:23;;;;;;;;;;;;;;;-1.69;62.29;96260.69;5066514;28;19924;-58
2024/01/17 05:55:12;;;;;;;;;;;;;;;-1.74;62.50;96258.06;5068069;28;19931;-58
2024/01/17 05:58:00;;;;;;;;;;;;;;;-1.73;62.24;96256.97;5065641;28;19931;-58
2024/01/17 06:00:49;;;;;;;;;;;;;;;-1.55;62.23;96247.56;5065010;28;19972;-58
2024/01/17 06:03:40;;;;;;;;;;;;;;;-1.79;62.47;96236.78;5070410;28;19924;-58
2024/01/17 06:06:29;;;;;;;;;;;;;;;-1.54;62.21;96227.88;5063395;28;20378;-59
2024/01/17 06:09:17;;;;;;;;;;;;;;;-1.22;61.39;96224.75;5071050;28;19925;-60
2024/01/17 06:12:05;;;;;;;;;;;;;;;-1.18;61.12;96224.97;5064612;28;19932;-59
2024/01/17 06:14:53;;;;;;;;;;;;;;;-1.28;60.85;96225.84;5069325;28;19924;-59
2024/01/17 06:17:42;;;;;;;;;;;;;;;-1.29;61.58;96207.47;5063897;28;19925;-59
2024/01/17 06:20:31;;;;;;;;;;;;;;;-1.20;61.34;96211.94;5066495;28;19925;-63
2024/01/17 06:23:19;;;;;;;;;;;;;;;-1.10;61.23;96195.88;5069359;28;20022;-59
2024/01/17 06:26:08;;;;;;;;;;;;;;;-0.92;61.04;96196.25;5068772;28;19932;-59
2024/01/17 06:28:56;;;;;;;;;;;;;;;-1.02;61.19;96199.00;5062722;28;20354;-59
2024/01/17 06:31:48;;;;;;;;;;;;;;;-0.69;60.59;96186.72;5068237;28;20007;-59
2024/01/17 06:34:36;;;;;;;;;;;;;;;-0.88;60.89;96181.31;5061619;28;19932;-58
2024/01/17 06:37:27;;;;;;;;;;;;;;;-0.97;61.24;96177.66;5068250;28;19931;-59
2024/01/17 06:40:15;;;;;;;;;;;;;;;-1.02;61.68;96175.03;5065921;28;20308;-59
2024/01/17 06:43:03;;;;;;;;;;;;;;;-0.82;61.45;96180.19;5069099;28;19986;-60
2024/01/17 06:45:53;;;;;;;;;;;;;;;-0.75;61.46;96179.84;5067682;28;19936;-60
2024/01/17 06:48:41;;;;;;;;;;;;;;;-0.77;61.75;96177.47;5065427;28;19939;-59
2024/01/17 06:51:33;;;;;;;;;;;;;;;-0.70;61.77;96175.25;5054259;28;20445;-61
2024/01/17 06:54:22;;;;;;;;;;;;;;;-0.68;61.21;96167.78;5068240;28;19931;-59
2024/01/17 06:57:10;;;;;;;;;;;;;;;-0.78;62.01;96162.56;5068985;28;19947;-59
2024/01/17 06:59:58;;;;;;;;;;;;;;;-0.73;62.04;96162.50;5070690;28;20004;-59
2024/01/17 07:02:47;;;;;;;;;;;;;;;-0.70;62.44;96167.25;5068775;28;19932;-59
2024/01/17 07:05:36;;;;;;;;;;;;;;;-0.53;61.87;96161.50;5069753;28;19924;-60
2024/01/17 07:08:24;;;;;;;;;;;;;;;-0.37;61.82;96164.81;5070573;28;20440;-59
2024/01/17 07:11:14;;;;;;;;;;;;;;;-0.62;62.48;96148.00;5071655;28;20405;-59
2024/01/17 07:14:02;;;;;;;;;;;;;;;-0.35;62.08;96146.63;5065780;28;20389;-60
2024/01/17 07:16:51;;;;;;;;;;;;;;;-0.28;61.97;96145.19;5061583;28;19928;-59
2024/01/17 07:19:39;;;;;;;;;;;;;;;-0.35;61.70;96127.97;5068612;28;20381;-59
2024/01/17 07:22:27;;;;;;;;;;;;;;;-0.41;62.65;96137.09;5072044;28;20009;-61
2024/01/17 07:25:15;;;;;;;;;;;;;;;-0.48;63.06;96125.97;5057216;28;19933;-59
2024/01/17 07:28:04;;;;;;;;;;;;;;;-0.30;62.44;96118.03;5068560;28;19924;-59
2024/01/17 07:30:52;;;;;;;;;;;;;;;-0.39;63.25;96108.25;5063315;28;20325;-60
2024/01/17 07:33:40;;;;;;;;;;;;;;;-0.20;62.69;96109.09;5067875;28;20045;-59
2024/01/17 07:36:28;;;;;;;;;;;;;;;-0.17;62.90;96097.84;5068135;28;19924;-59
2024/01/17 07:39:18;;;;;;;;;;;;;;;-0.05;62.78;96092.88;5071191;28;20305;-58
2024/01/17 07:42:06;;;;;;;;;;;;;;;0.10;62.20;96083.84;5068698;28;19925;-59
2024/01/17 07:44:55;;;;;;;;;;;;;;;0.06;62.61;96076.75;5069250;28;19928;-60
2024/01/17 07:47:44;;;;;;;;;;;;;;;-0.08;63.39;96071.31;5067783;28;19967;-58
2024/01/17 07:50:33;;;;;;;;;;;;;;;-0.12;64.04;96060.41;5067438;28;19931;-58
2024/01/17 07:53:21;;;;;;;;;;;;;;;-0.24;65.21;96056.59;5063851;28;19925;-63
2024/01/17 07:56:10;;;;;;;;;;;;;;;-0.04;65.12;96057.09;5065519;28;19924;-58
2024/01/17 07:58:58;;;;;;;;;;;;;;;0.03;65.67;96055.94;5065274;28;19935;-59
2024/01/17 08:01:49;;;;;;;;;;;;;;;0.12;66.20;96049.66;5063260;28;20408;-59
2024/01/17 08:04:37;;;;;;;;;;;;;;;0.23;66.27;96047.63;5061753;28;20475;-60
2024/01/17 08:07:26;;;;;;;;;;;;;;;0.26;66.25;96042.50;5062468;28;19931;-60
2024/01/17 08:10:14;;;;;;;;;;;;;;;0.26;66.52;96041.69;5068045;28;19925;-58
2024/01/17 08:13:02;;;;;;;;;;;;;;;0.35;66.84;96037.28;5068156;28;19924;-59
2024/01/17 08:15:50;;;;;;;;;;;;;;;0.38;67.25;96034.06;5065435;28;20381;-59
2024/01/17 08:18:40;;;;;;;;;;;;;;;0.51;67.02;96035.16;5067601;28;19936;-59
2024/01/17 08:21:28;;;;;;;;;;;;;;;0.57;67.38;96027.88;5058061;28;19975;-57
2024/01/17 08:24:16;;;;;;;;;;;;;;;0.62;66.90;96019.75;5066634;28;20267;-58
2024/01/17 08:27:05;;;;;;;;;;;;;;;0.49;68.05;96016.75;5069659;28;19987;-58
2024/01/17 08:29:53;;;;;;;;;;;;;;;0.64;67.75;96010.38;5067030;28;20401;-57
2024/01/17 08:32:41;;;;;;;;;;;;;;;0.70;68.33;96006.53;5067742;28;20396;-58
2024/01/17 08:35:31;;;;;;;;;;;;;;;0.70;68.03;96000.38;5066373;28;19931;-57
2024/01/17 08:38:19;;;;;;;;;;;;;;;0.88;67.96;95998.72;5065510;28;19930;-58
2024/01/17 08:41:08;;;;;;;;;;;;;;;0.82;68.61;95990.00;5066052;28;19950;-59
2024/01/17 08:43:56;;;;;;;;;;;;;;;0.75;68.96;95976.25;5065249;28;19924;-60
2024/01/17 08:46:44;;;;;;;;;;;;;;;0.83;69.44;95972.88;5061875;28;20374;-58
2024/01/17 08:49:33;;;;;;;;;;;;;;;0.64;69.70;95964.94;5068239;28;20058;-58
2024/01/17 08:52:22;;;;;;;;;;;;;;;0.89;69.57;95961.00;5066488;28;20365;-58
2024/01/17 08:55:10;;;;;;;;;;;;;;;0.86;70.05;95961.59;5071170;28;19932;-60
2024/01/17 08:58:00;;;;;;;;;;;;;;;0.99;69.88;95954.66;5069778;28;19924;-59
2024/01/17 09:00:47;;;;;;;;;;;;;;;1.07;69.53;95955.84;5069676;28;20137;-59
2024/01/17 09:03:36;;;;;;;;;;;;;;;0.90;70.64;95951.09;5064996;28;20298;-59
2024/01/17 09:06:24;;;;;;;;;;;;;;;0.89;71.02;95950.28;5064173;28;19925;-60
2024/01/17 09:09:14;;;;;;;;;;;;;;;1.08;71.10;95944.06;5069391;28;19932;-60
2024/01/17 09:12:03;;;;;;;;;;;;;;;1.07;71.07;95932.59;5070740;28;19925;-58
2024/01/17 09:14:51;;;;;;;;;;;;;;;1.20;71.04;95939.00;5069408;28;19932;-58
2024/01/17 09:17:39;;;;;;;;;;;;;;;1.14;71.27;95930.28;5061138;28;19983;-57
2024/01/17 09:20:27;;;;;;;;;;;;;;;1.34;71.16;95920.25;5064536;28;19975;-58
2024/01/17 09:23:16;;;;;;;;;;;;;;;1.36;71.50;95920.75;5065048;28;19936;-61
2024/01/17 09:26:06;;;;;;;;;;;;;;;1.30;71.91;95922.72;5066526;28;19924;-60
2024/01/17 09:28:54;;;;;;;;;;;;;;;1.19;72.75;95910.66;5067167;28;19924;-58
2024/01/17 09:31:43;;;;;;;;;;;;;;;1.43;72.19;95908.53;5067898;28;20302;-58
2024/01/17 09:34:32;;;;;;;;;;;;;;;1.44;72.34;95901.28;5069738;28;19925;-59
2024/01/17 09:37:20;;;;;;;;;;;;;;;1.43;72.74;95903.16;5062938;28;19925;-60
2024/01/17 09:40:10;;;;;;;;;;;;;;;1.51;72.84;95905.16;5067797;28;19924;-58
2024/01/17 09:43:00;;;;;;;;;;;;;;;1.69;72.15;95894.56;5063899;28;19932;-59
2024/01/17 09:45:56;;;;;;;;;;;;;;;1.62;72.47;95895.00;5065319;28;19932;-59
2024/01/17 09:48:45;;;;;;;;;;;;;;;1.70;72.55;95894.25;5068475;28;20413;-59
2024/01/17 09:51:34;;;;;;;;;;;;;;;1.79;72.10;95889.78;5065526;28;19924;-60
2024/01/17 09:54:24;;;;;;;;;;;;;;;2.00;71.61;95871.31;5066494;28;20385;-58
2024/01/17 09:57:14;;;;;;;;;;;;;;;1.80;72.76;95872.59;5065071;28;21135;-59
2024/01/17 10:00:07;;;;;;;;;;;;;;;1.75;73.09;95869.25;5068441;28;20386;-63
2024/01/17 10:02:55;;;;;;;;;;;;;;;2.05;72.04;95862.38;5067624;28;20021;-58
2024/01/17 10:05:43;;;;;;;;;;;;;;;1.95;72.89;95855.38;5067159;28;19925;-61
2024/01/17 10:08:32;;;;;;;;;;;;;;;2.17;71.78;95838.47;5070118;28;19931;-60
2024/01/17 10:11:20;;;;;;;;;;;;;;;2.21;72.00;95839.47;5061518;28;20048;-65
2024/01/17 10:14:08;;;;;;;;;;;;;;;2.28;72.39;95834.44;5067437;28;19932;-58
2024/01/17 10:16:58;;;;;;;;;;;;;;;2.37;71.82;95826.44;5067330;28;20393;-58
2024/01/17 10:19:47;;;;;;;;;;;;;;;2.39;71.91;95828.81;5063543;28;20915;-58
2024/01/17 10:22:35;;;;;;;;;;;;;;;2.34;72.25;95819.00;5070310;28;20092;-59
2024/01/17 10:25:23;;;;;;;;;;;;;;;2.32;72.47;95808.59;5066708;28;19932;-59
2024/01/17 10:28:11;;;;;;;;;;;;;;;2.24;73.14;95804.03;5067904;28;19943;-59
2024/01/17 10:31:00;;;;;;;;;;;;;;;2.25;73.28;95796.78;5063906;28;19931;-59
2024/01/17 10:33:50;;;;;;;;;;;;;;;2.57;72.39;95785.69;5068934;28;19928;-59
2024/01/17 10:36:39;;;;;;;;;;;;;;;2.70;72.22;95769.78;5066568;28;19933;-59
2024/01/17 10:39:27;;;;;;;;;;;;;;;2.78;71.89;95760.97;5068751;28;20305;-60
2024/01/17 10:42:19;;;;;;;;;;;;;;;2.74;72.39;95758.13;5071557;28;19954;-58
2024/01/17 10:45:08;;;;;;;;;;;;;;;2.75;72.76;95740.13;5064687;28;19932;-60
2024/01/17 10:47:57;;;;;;;;;;;;;;;2.75;72.74;95730.19;5067773;28;19925;-60
2024/01/17 10:50:47;;;;;;;;;;;;;;;2.70;73.31;95732.25;5077328;28;19924;-59
2024/01/17 10:53:35;;;;;;;;;;;;;;;2.81;73.21;95723.56;5065181;28;20069;-59
2024/01/17 10:56:35;;;;;;;;;;;;;;;2.75;73.53;95714.09;5057798;28;19924;-58
2024/01/17 10:59:23;;;;;;;;;;;;;;;2.86;73.64;95704.66;5064665;28;20270;-59
2024/01/17 11:02:14;;;;;;;;;;;;;;;2.95;73.40;95680.53;5061966;28;19982;-59
2024/01/17 11:05:05;;;;;;;;;;;;;;;3.11;73.14;95684.28;5066526;28;19932;-59
2024/01/17 11:07:54;;;;;;;;;;;;;;;2.79;74.23;95669.47;5066727;28;19924;-60
2024/01/17 11:10:43;;;;;;;;;;;;;;;2.93;74.04;95666.66;5066528;28;19924;-63
2024/01/17 11:13:32;;;;;;;;;;;;;;;3.17;73.65;95650.03;5064055;28;19926;-58
2024/01/17 11:16:20;;;;;;;;;;;;;;;3.22;73.58;95627.63;5065769;28;20387;-58
2024/01/17 11:19:08;;;;;;;;;;;;;;;3.29;73.68;95619.84;5062907;28;19925;-62
2024/01/17 11:21:58;;;;;;;;;;;;;;;3.51;72.46;95616.94;5071046;28;19932;-59
2024/01/17 11:24:51;;;;;;;;;;;;;;;3.53;72.19;95601.31;5067216;28;19924;-59
2024/01/17 11:27:41;;;;;;;;;;;;;;;3.48;73.26;95595.31;5067652;28;20505;-59
2024/01/17 11:30:33;;;;;;;;;;;;;;;3.60;72.65;95590.84;5066524;28;20259;-58
2024/01/17 11:33:21;;;;;;;;;;;;;;;3.70;72.25;95587.00;5066847;28;19928;-59
2024/01/17 11:36:13;;;;;;;;;;;;;;;3.64;72.60;95570.31;5068083;28;19979;-62
2024/01/17 11:39:01;;;;;;;;;;;;;;;3.66;72.59;95565.38;5061310;28;19928;-60
2024/01/17 11:41:51;;;;;;;;;;;;;;;3.73;72.05;95554.16;5068626;28;19925;-59
2024/01/17 11:44:39;;;;;;;;;;;;;;;3.61;73.29;95549.44;5064384;28;19932;-60
2024/01/17 11:47:27;;;;;;;;;;;;;;;3.73;73.08;95534.53;5059673;28;19925;-60
2024/01/17 11:50:15;;;;;;;;;;;;;;;3.84;72.69;95527.72;5069567;28;19925;-59
2024/01/17 11:53:03;;;;;;;;;;;;;;;3.91;72.67;95522.59;5063425;28;20386;-60
2024/01/17 11:55:52;;;;;;;;;;;;;;;3.86;72.49;95514.72;5063022;28;19935;-59
2024/01/17 11:58:42;;;;;;;;;;;;;;;4.06;72.17;95508.59;5062678;28;19939;-59
2024/01/17 12:01:40;;;;;;;;;;;;;;;4.13;72.03;95503.47;5069522;28;19925;-59
2024/01/17 12:04:28;;;;;;;;;;;;;;;3.96;71.79;95495.53;5066087;28;19936;-59
2024/01/17 12:07:16;;;;;;;;;;;;;;;3.94;72.52;95487.81;5071645;28;19924;-59
2024/01/17 12:10:09;;;;;;;;;;;;;;;4.06;71.31;95481.72;5074260;28;19967;-59
2024/01/17 12:12:57;;;;;;;;;;;;;;;4.15;70.59;95478.94;5068115;28;20026;-59
2024/01/17 12:15:48;;;;;;;;;;;;;;;4.03;71.95;95482.34;5069069;28;19928;-58
2024/01/17 12:18:36;;;;;;;;;;;;;;;4.08;71.56;95479.47;5071176;28;20400;-61
2024/01/17 12:21:24;;;;;;;;;;;;;;;4.03;71.28;95474.28;5078199;28;19935;-62
2024/01/17 12:24:12;;;;;;;;;;;;;;;3.96;71.76;95471.38;5070217;28;19935;-60
2024/01/17 12:27:00;;;;;;;;;;;;;;;3.85;72.60;95467.50;5069686;28;20412;-58
2024/01/17 12:29:53;;;;;;;;;;;;;;;3.90;72.75;95472.69;5066024;28;20372;-58
2024/01/17 12:32:42;;;;;;;;;;;;;;;3.87;72.52;95457.97;5070245;28;19924;-58
2024/01/17 12:35:30;;;;;;;;;;;;;;;3.95;72.58;95459.06;5070543;28;20355;-58
2024/01/17 12:38:18;;;;;;;;;;;;;;;4.02;72.22;95453.94;5065686;28;20366;-59
2024/01/17 12:41:07;;;;;;;;;;;;;;;3.74;72.63;95451.00;5070569;28;19925;-59
2024/01/17 12:43:55;;;;;;;;;;;;;;;3.64;73.42;95444.09;5063401;28;19929;-59
2024/01/17 12:46:43;;;;;;;;;;;;;;;3.83;72.79;95440.16;5072765;28;19929;-59
2024/01/17 12:49:33;;;;;;;;;;;;;;;3.83;73.28;95426.75;5066479;28;20041;-59
2024/01/17 12:52:21;;;;;;;;;;;;;;;3.87;73.24;95433.03;5071331;28;19928;-59
2024/01/17 12:55:10;;;;;;;;;;;;;;;3.92;73.36;95422.09;5071761;28;20074;-58
2024/01/17 12:57:59;;;;;;;;;;;;;;;3.87;73.89;95431.13;5069624;28;19924;-59
2024/01/17 13:00:49;;;;;;;;;;;;;;;3.78;74.20;95419.69;5067028;28;19931;-60
2024/01/17 13:03:40;;;;;;;;;;;;;;;3.68;75.07;95420.88;5067808;28;19931;-58
2024/01/17 13:06:29;;;;;;;;;;;;;;;3.86;74.07;95410.75;5066764;28;19961;-59
2024/01/17 13:09:18;;;;;;;;;;;;;;;3.73;74.41;95413.69;5073147;28;19975;-58
2024/01/17 13:12:10;;;;;;;;;;;;;;;3.69;75.04;95402.84;5070235;28;19924;-60
2024/01/17 13:14:58;;;;;;;;;;;;;;;3.77;74.54;95393.16;5071146;28;20409;-59
2024/01/17 13:17:48;;;;;;;;;;;;;;;3.86;74.51;95388.50;5071808;28;19935;-59
2024/01/17 13:20:38;;;;;;;;;;;;;;;3.77;74.76;95382.41;5070177;28;20534;-59
2024/01/17 13:23:27;;;;;;;;;;;;;;;3.80;74.86;95377.16;5069453;28;20309;-63
2024/01/17 13:26:15;;;;;;;;;;;;;;;3.67;74.90;95370.97;5074701;28;20053;-59
2024/01/17 13:29:04;;;;;;;;;;;;;;;3.74;74.55;95369.66;5085193;28;19932;-59
2024/01/17 13:31:52;;;;;;;;;;;;;;;3.88;74.04;95348.66;5068870;28;19924;-58
2024/01/17 13:34:41;;;;;;;;;;;;;;;3.81;73.95;95353.78;5069155;28;19928;-60
2024/01/17 13:37:29;;;;;;;;;;;;;;;3.95;74.13;95356.97;5068233;28;19947;-58
2024/01/17 13:40:20;;;;;;;;;;;;;;;3.92;74.11;95355.72;5072232;28;20061;-58
2024/01/17 13:43:08;;;;;;;;;;;;;;;3.76;74.56;95346.72;5069168;28;20057;-58
2024/01/17 13:45:56;;;;;;;;;;;;;;;3.88;74.21;95340.59;5067400;28;20407;-59
2024/01/17 13:48:46;;;;;;;;;;;;;;;3.97;73.99;95332.47;5068766;28;20303;-59
2024/01/17 13:51:43;;;;;;;;;;;;;;;4.10;73.93;95324.09;5069550;28;19924;-60
2024/01/17 13:54:33;;;;;;;;;;;;;;;3.81;74.27;95330.38;5071208;28;20289;-59
2024/01/17 13:57:23;;;;;;;;;;;;;;;3.94;74.45;95312.41;5073576;28;20593;-59
2024/01/17 14:00:12;;;;;;;;;;;;;;;4.03;73.64;95310.41;5067102;28;19924;-58
2024/01/17 14:03:00;;;;;;;;;;;;;;;3.98;73.99;95302.56;5065107;28;20309;-59
2024/01/17 14:05:49;;;;;;;;;;;;;;;4.04;74.50;95297.75;5068682;28;19924;-58
2024/01/17 14:08:37;;;;;;;;;;;;;;;4.14;74.04;95295.44;5067641;28;21779;-59
2024/01/17 14:11:27;;;;;;;;;;;;;;;4.26;73.78;95275.06;5075262;28;19925;-60
2024/01/17 14:14:17;;;;;;;;;;;;;;;4.16;74.08;95266.34;5067345;28;19967;-60
2024/01/17 14:17:05;;;;;;;;;;;;;;;4.27;74.08;95261.31;5075432;28;19924;-59
2024/01/17 14:19:54;;;;;;;;;;;;;;;4.06;74.58;95272.16;5074850;28;19928;-58
2024/01/17 14:22:42;;;;;;;;;;;;;;;3.90;75.26;95273.91;5068519;28;19924;-58
2024/01/17 14:25:31;;;;;;;;;;;;;;;4.04;75.23;95287.81;5071165;28;20031;-58
2024/01/17 14:28:20;;;;;;;;;;;;;;;4.23;74.50;95271.16;5071852;28;19924;-58
2024/01/17 14:31:11;;;;;;;;;;;;;;;4.16;74.91;95284.38;5072844;28;19964;-60
2024/01/17 14:33:59;;;;;;;;;;;;;;;4.07;75.37;95262.19;5069173;28;19925;-60
2024/01/17 14:36:48;;;;;;;;;;;;;;;4.18;75.67;95271.38;5064400;28;20281;-59
2024/01/17 14:39:36;;;;;;;;;;;;;;;4.01;76.43;95264.31;5068230;28;20004;-59
2024/01/17 14:42:25;;;;;;;;;;;;;;;4.23;75.40;95255.03;5065826;28;19928;-60